sensor_id;sensor_type;location;lat;lon;timestamp;P1;durP1;ratioP1;P2;durP2;ratioP2
26756;SDS011;23848;49.798;10.228;2023-02-01T00:01:46;6.50;;;4.50;;
26756;SDS011;23848;49.798;10.228;2023-02-01T00:04:15;8.70;;;4.72;;
26756;SDS011;23848;49.798;10.228;2023-02-01T00:06:43;6.97;;;5.13;;
26756;SDS011;23848;49.798;10.228;2023-02-01T00:09:11;7.57;;;4.80;;
26756;SDS011;23848;49.798;10.228;2023-02-01T00:11:40;9.20;;;5.35;;
26756;SDS011;23848;49.798;10.228;2023-02-01T00:14:08;8.32;;;4.95;;
26756;SDS011;23848;49.798;10.228;2023-02-01T00:16:38;6.40;;;4.57;;
26756;SDS011;23848;49.798;10.228;2023-02-01T00:19:07;8.63;;;4.78;;
26756;SDS011;23848;49.798;10.228;2023-02-01T00:21:36;8.38;;;5.35;;
26756;SDS011;23848;49.798;10.228;2023-02-01T00:24:05;6.70;;;4.57;;
26756;SDS011;23848;49.798;10.228;2023-02-01T00:26:34;6.68;;;4.60;;
26756;SDS011;23848;49.798;10.228;2023-02-01T00:29:04;6.35;;;4.43;;
26756;SDS011;23848;49.798;10.228;2023-02-01T00:31:32;8.98;;;4.90;;
26756;SDS011;23848;49.798;10.228;2023-02-01T00:34:02;7.05;;;4.63;;
26756;SDS011;23848;49.798;10.228;2023-02-01T00:36:31;7.07;;;4.97;;
26756;SDS011;23848;49.798;10.228;2023-02-01T00:38:59;7.63;;;4.80;;
26756;SDS011;23848;49.798;10.228;2023-02-01T00:41:27;6.25;;;4.65;;
26756;SDS011;23848;49.798;10.228;2023-02-01T00:43:56;8.98;;;5.13;;
26756;SDS011;23848;49.798;10.228;2023-02-01T00:46:24;7.90;;;5.10;;
26756;SDS011;23848;49.798;10.228;2023-02-01T00:48:53;7.50;;;5.07;;
26756;SDS011;23848;49.798;10.228;2023-02-01T00:51:23;8.50;;;5.10;;
26756;SDS011;23848;49.798;10.228;2023-02-01T00:53:52;6.88;;;5.10;;
26756;SDS011;23848;49.798;10.228;2023-02-01T00:56:21;6.95;;;5.05;;
26756;SDS011;23848;49.798;10.228;2023-02-01T00:58:49;7.18;;;5.18;;
26756;SDS011;23848;49.798;10.228;2023-02-01T01:01:18;10.32;;;5.22;;
26756;SDS011;23848;49.798;10.228;2023-02-01T01:03:47;9.07;;;5.40;;
26756;SDS011;23848;49.798;10.228;2023-02-01T01:06:18;7.82;;;4.75;;
26756;SDS011;23848;49.798;10.228;2023-02-01T01:08:49;9.23;;;5.20;;
26756;SDS011;23848;49.798;10.228;2023-02-01T01:11:19;7.22;;;5.40;;
26756;SDS011;23848;49.798;10.228;2023-02-01T01:13:48;8.00;;;5.28;;
26756;SDS011;23848;49.798;10.228;2023-02-01T01:16:19;7.03;;;5.22;;
26756;SDS011;23848;49.798;10.228;2023-02-01T01:19:00;7.30;;;5.05;;
26756;SDS011;23848;49.798;10.228;2023-02-01T01:21:29;6.47;;;4.68;;
26756;SDS011;23848;49.798;10.228;2023-02-01T01:23:59;10.10;;;5.20;;
26756;SDS011;23848;49.798;10.228;2023-02-01T01:26:27;9.93;;;5.78;;
26756;SDS011;23848;49.798;10.228;2023-02-01T01:28:56;6.50;;;4.93;;
26756;SDS011;23848;49.798;10.228;2023-02-01T01:31:25;7.70;;;4.70;;
26756;SDS011;23848;49.798;10.228;2023-02-01T01:33:55;6.38;;;4.88;;
26756;SDS011;23848;49.798;10.228;2023-02-01T01:36:23;8.02;;;4.90;;
26756;SDS011;23848;49.798;10.228;2023-02-01T01:38:52;6.97;;;4.93;;
26756;SDS011;23848;49.798;10.228;2023-02-01T01:41:23;7.88;;;5.07;;
26756;SDS011;23848;49.798;10.228;2023-02-01T01:43:53;8.30;;;5.63;;
26756;SDS011;23848;49.798;10.228;2023-02-01T01:46:22;7.93;;;5.05;;
26756;SDS011;23848;49.798;10.228;2023-02-01T01:48:53;7.65;;;5.10;;
26756;SDS011;23848;49.798;10.228;2023-02-01T01:51:23;8.43;;;5.13;;
26756;SDS011;23848;49.798;10.228;2023-02-01T01:53:55;7.10;;;4.60;;
26756;SDS011;23848;49.798;10.228;2023-02-01T01:56:25;8.30;;;5.15;;
26756;SDS011;23848;49.798;10.228;2023-02-01T01:58:54;7.75;;;4.53;;
26756;SDS011;23848;49.798;10.228;2023-02-01T02:01:23;6.85;;;4.53;;
26756;SDS011;23848;49.798;10.228;2023-02-01T02:03:51;8.30;;;4.82;;
26756;SDS011;23848;49.798;10.228;2023-02-01T02:06:23;6.30;;;4.65;;
26756;SDS011;23848;49.798;10.228;2023-02-01T02:08:52;7.97;;;5.10;;
26756;SDS011;23848;49.798;10.228;2023-02-01T02:11:21;9.10;;;4.88;;
26756;SDS011;23848;49.798;10.228;2023-02-01T02:13:51;8.48;;;4.65;;
26756;SDS011;23848;49.798;10.228;2023-02-01T02:16:24;8.00;;;4.43;;
26756;SDS011;23848;49.798;10.228;2023-02-01T02:18:57;6.43;;;4.03;;
26756;SDS011;23848;49.798;10.228;2023-02-01T02:21:36;8.23;;;4.70;;
26756;SDS011;23848;49.798;10.228;2023-02-01T02:24:16;8.68;;;5.03;;
26756;SDS011;23848;49.798;10.228;2023-02-01T02:27:00;8.18;;;4.57;;
26756;SDS011;23848;49.798;10.228;2023-02-01T02:29:46;7.72;;;5.60;;
26756;SDS011;23848;49.798;10.228;2023-02-01T02:32:38;8.07;;;4.95;;
26756;SDS011;23848;49.798;10.228;2023-02-01T02:35:11;8.98;;;5.00;;
26756;SDS011;23848;49.798;10.228;2023-02-01T02:37:45;6.95;;;4.70;;
26756;SDS011;23848;49.798;10.228;2023-02-01T02:40:18;7.70;;;4.80;;
26756;SDS011;23848;49.798;10.228;2023-02-01T02:42:50;6.93;;;4.60;;
26756;SDS011;23848;49.798;10.228;2023-02-01T02:45:40;7.25;;;4.63;;
26756;SDS011;23848;49.798;10.228;2023-02-01T02:48:28;6.63;;;4.30;;
26756;SDS011;23848;49.798;10.228;2023-02-01T02:51:00;7.32;;;4.43;;
26756;SDS011;23848;49.798;10.228;2023-02-01T02:53:50;6.10;;;4.43;;
26756;SDS011;23848;49.798;10.228;2023-02-01T02:56:37;6.47;;;3.85;;
26756;SDS011;23848;49.798;10.228;2023-02-01T02:59:24;5.07;;;3.60;;
26756;SDS011;23848;49.798;10.228;2023-02-01T03:02:10;4.80;;;3.63;;
26756;SDS011;23848;49.798;10.228;2023-02-01T03:04:57;6.25;;;3.60;;
26756;SDS011;23848;49.798;10.228;2023-02-01T03:10:16;4.90;;;3.60;;
26756;SDS011;23848;49.798;10.228;2023-02-01T03:12:46;6.07;;;3.88;;
26756;SDS011;23848;49.798;10.228;2023-02-01T03:15:23;5.70;;;3.92;;
26756;SDS011;23848;49.798;10.228;2023-02-01T03:17:53;5.95;;;3.70;;
26756;SDS011;23848;49.798;10.228;2023-02-01T03:20:24;6.18;;;3.95;;
26756;SDS011;23848;49.798;10.228;2023-02-01T03:22:53;6.50;;;4.45;;
26756;SDS011;23848;49.798;10.228;2023-02-01T03:25:24;6.28;;;4.25;;
26756;SDS011;23848;49.798;10.228;2023-02-01T03:27:54;5.30;;;3.80;;
26756;SDS011;23848;49.798;10.228;2023-02-01T03:30:26;6.72;;;4.45;;
26756;SDS011;23848;49.798;10.228;2023-02-01T03:32:55;6.72;;;4.68;;
26756;SDS011;23848;49.798;10.228;2023-02-01T03:35:26;7.00;;;4.10;;
26756;SDS011;23848;49.798;10.228;2023-02-01T03:37:56;6.95;;;4.50;;
26756;SDS011;23848;49.798;10.228;2023-02-01T03:40:28;7.55;;;4.55;;
26756;SDS011;23848;49.798;10.228;2023-02-01T03:43:00;10.02;;;4.80;;
26756;SDS011;23848;49.798;10.228;2023-02-01T03:45:31;7.97;;;4.63;;
26756;SDS011;23848;49.798;10.228;2023-02-01T03:48:01;6.90;;;4.85;;
26756;SDS011;23848;49.798;10.228;2023-02-01T03:50:30;7.05;;;4.60;;
26756;SDS011;23848;49.798;10.228;2023-02-01T03:53:01;7.22;;;4.25;;
26756;SDS011;23848;49.798;10.228;2023-02-01T03:55:31;7.35;;;4.13;;
26756;SDS011;23848;49.798;10.228;2023-02-01T03:58:02;7.60;;;4.47;;
26756;SDS011;23848;49.798;10.228;2023-02-01T04:00:31;6.20;;;4.13;;
26756;SDS011;23848;49.798;10.228;2023-02-01T04:03:00;6.38;;;4.20;;
26756;SDS011;23848;49.798;10.228;2023-02-01T04:05:30;9.57;;;4.70;;
26756;SDS011;23848;49.798;10.228;2023-02-01T04:07:59;6.43;;;4.55;;
26756;SDS011;23848;49.798;10.228;2023-02-01T04:10:27;5.60;;;3.72;;
26756;SDS011;23848;49.798;10.228;2023-02-01T04:12:57;5.30;;;3.97;;
26756;SDS011;23848;49.798;10.228;2023-02-01T04:15:25;6.68;;;4.10;;
26756;SDS011;23848;49.798;10.228;2023-02-01T04:17:54;7.13;;;4.03;;
26756;SDS011;23848;49.798;10.228;2023-02-01T04:20:22;6.18;;;3.55;;
26756;SDS011;23848;49.798;10.228;2023-02-01T04:22:50;5.07;;;3.97;;
26756;SDS011;23848;49.798;10.228;2023-02-01T04:25:19;5.75;;;3.60;;
26756;SDS011;23848;49.798;10.228;2023-02-01T04:27:47;5.13;;;3.55;;
26756;SDS011;23848;49.798;10.228;2023-02-01T04:30:17;4.85;;;3.47;;
26756;SDS011;23848;49.798;10.228;2023-02-01T04:32:46;6.13;;;3.38;;
26756;SDS011;23848;49.798;10.228;2023-02-01T04:35:14;5.18;;;2.83;;
26756;SDS011;23848;49.798;10.228;2023-02-01T04:37:43;4.22;;;2.78;;
26756;SDS011;23848;49.798;10.228;2023-02-01T04:40:12;5.40;;;3.15;;
26756;SDS011;23848;49.798;10.228;2023-02-01T04:42:40;7.00;;;3.38;;
26756;SDS011;23848;49.798;10.228;2023-02-01T04:45:09;5.00;;;2.60;;
26756;SDS011;23848;49.798;10.228;2023-02-01T04:47:39;4.38;;;2.60;;
26756;SDS011;23848;49.798;10.228;2023-02-01T04:50:08;5.30;;;2.50;;
26756;SDS011;23848;49.798;10.228;2023-02-01T04:52:36;4.40;;;2.50;;
26756;SDS011;23848;49.798;10.228;2023-02-01T04:55:05;6.15;;;2.65;;
26756;SDS011;23848;49.798;10.228;2023-02-01T04:57:33;5.55;;;2.50;;
26756;SDS011;23848;49.798;10.228;2023-02-01T05:00:02;6.18;;;2.35;;
26756;SDS011;23848;49.798;10.228;2023-02-01T05:02:33;4.75;;;2.20;;
26756;SDS011;23848;49.798;10.228;2023-02-01T05:05:03;5.10;;;2.38;;
26756;SDS011;23848;49.798;10.228;2023-02-01T05:07:31;7.95;;;2.13;;
26756;SDS011;23848;49.798;10.228;2023-02-01T05:09:59;5.60;;;1.80;;
26756;SDS011;23848;49.798;10.228;2023-02-01T05:12:28;5.63;;;1.52;;
26756;SDS011;23848;49.798;10.228;2023-02-01T05:15:14;4.60;;;1.88;;
26756;SDS011;23848;49.798;10.228;2023-02-01T05:17:42;8.10;;;2.00;;
26756;SDS011;23848;49.798;10.228;2023-02-01T05:20:12;6.22;;;2.15;;
26756;SDS011;23848;49.798;10.228;2023-02-01T05:22:40;4.05;;;1.63;;
26756;SDS011;23848;49.798;10.228;2023-02-01T05:25:09;6.43;;;2.30;;
26756;SDS011;23848;49.798;10.228;2023-02-01T05:27:37;6.18;;;1.83;;
26756;SDS011;23848;49.798;10.228;2023-02-01T05:30:06;9.25;;;3.03;;
26756;SDS011;23848;49.798;10.228;2023-02-01T05:32:34;4.97;;;2.25;;
26756;SDS011;23848;49.798;10.228;2023-02-01T05:35:03;8.63;;;2.45;;
26756;SDS011;23848;49.798;10.228;2023-02-01T05:37:32;6.72;;;2.63;;
26756;SDS011;23848;49.798;10.228;2023-02-01T05:40:01;5.63;;;1.85;;
26756;SDS011;23848;49.798;10.228;2023-02-01T05:42:29;5.13;;;1.50;;
26756;SDS011;23848;49.798;10.228;2023-02-01T05:44:58;4.47;;;1.05;;
26756;SDS011;23848;49.798;10.228;2023-02-01T05:47:26;4.45;;;1.08;;
26756;SDS011;23848;49.798;10.228;2023-02-01T05:49:54;3.50;;;1.30;;
26756;SDS011;23848;49.798;10.228;2023-02-01T05:52:23;4.85;;;1.20;;
26756;SDS011;23848;49.798;10.228;2023-02-01T05:54:53;2.45;;;0.95;;
26756;SDS011;23848;49.798;10.228;2023-02-01T05:57:21;2.47;;;0.88;;
26756;SDS011;23848;49.798;10.228;2023-02-01T05:59:49;2.47;;;0.80;;
26756;SDS011;23848;49.798;10.228;2023-02-01T06:02:17;1.38;;;0.65;;
26756;SDS011;23848;49.798;10.228;2023-02-01T06:04:46;1.73;;;0.60;;
26756;SDS011;23848;49.798;10.228;2023-02-01T06:07:15;1.20;;;0.60;;
26756;SDS011;23848;49.798;10.228;2023-02-01T06:09:43;1.75;;;0.70;;
26756;SDS011;23848;49.798;10.228;2023-02-01T06:12:13;2.67;;;0.60;;
26756;SDS011;23848;49.798;10.228;2023-02-01T06:14:41;0.95;;;0.50;;
26756;SDS011;23848;49.798;10.228;2023-02-01T06:17:09;0.93;;;0.52;;
26756;SDS011;23848;49.798;10.228;2023-02-01T06:19:38;1.85;;;0.95;;
26756;SDS011;23848;49.798;10.228;2023-02-01T06:22:07;1.73;;;0.70;;
26756;SDS011;23848;49.798;10.228;2023-02-01T06:24:35;1.42;;;0.70;;
26756;SDS011;23848;49.798;10.228;2023-02-01T06:27:04;2.40;;;1.00;;
26756;SDS011;23848;49.798;10.228;2023-02-01T06:29:34;4.30;;;1.13;;
26756;SDS011;23848;49.798;10.228;2023-02-01T06:32:02;2.22;;;1.10;;
26756;SDS011;23848;49.798;10.228;2023-02-01T06:34:31;2.28;;;1.25;;
26756;SDS011;23848;49.798;10.228;2023-02-01T06:36:59;2.25;;;1.00;;
26756;SDS011;23848;49.798;10.228;2023-02-01T06:39:27;3.13;;;1.10;;
26756;SDS011;23848;49.798;10.228;2023-02-01T06:41:55;2.10;;;1.17;;
26756;SDS011;23848;49.798;10.228;2023-02-01T06:44:24;2.22;;;1.08;;
26756;SDS011;23848;49.798;10.228;2023-02-01T06:46:53;3.08;;;1.40;;
26756;SDS011;23848;49.798;10.228;2023-02-01T06:49:22;4.43;;;2.40;;
26756;SDS011;23848;49.798;10.228;2023-02-01T06:51:50;2.80;;;1.73;;
26756;SDS011;23848;49.798;10.228;2023-02-01T06:54:19;2.55;;;1.40;;
26756;SDS011;23848;49.798;10.228;2023-02-01T06:56:47;2.88;;;1.52;;
26756;SDS011;23848;49.798;10.228;2023-02-01T06:59:15;3.30;;;1.33;;
26756;SDS011;23848;49.798;10.228;2023-02-01T07:01:44;3.13;;;1.80;;
26756;SDS011;23848;49.798;10.228;2023-02-01T07:04:13;4.15;;;2.42;;
26756;SDS011;23848;49.798;10.228;2023-02-01T07:06:42;3.85;;;2.00;;
26756;SDS011;23848;49.798;10.228;2023-02-01T07:09:10;3.50;;;1.60;;
26756;SDS011;23848;49.798;10.228;2023-02-01T07:11:39;4.38;;;1.92;;
26756;SDS011;23848;49.798;10.228;2023-02-01T07:14:09;5.50;;;2.13;;
26756;SDS011;23848;49.798;10.228;2023-02-01T07:16:37;4.18;;;2.20;;
26756;SDS011;23848;49.798;10.228;2023-02-01T07:19:06;2.95;;;1.55;;
26756;SDS011;23848;49.798;10.228;2023-02-01T07:21:36;4.28;;;1.67;;
26756;SDS011;23848;49.798;10.228;2023-02-01T07:24:04;3.65;;;2.00;;
26756;SDS011;23848;49.798;10.228;2023-02-01T07:26:33;4.40;;;2.22;;
26756;SDS011;23848;49.798;10.228;2023-02-01T07:29:01;5.03;;;2.30;;
26756;SDS011;23848;49.798;10.228;2023-02-01T07:31:29;4.55;;;2.42;;
26756;SDS011;23848;49.798;10.228;2023-02-01T07:33:57;4.05;;;2.53;;
26756;SDS011;23848;49.798;10.228;2023-02-01T07:36:27;4.70;;;2.28;;
26756;SDS011;23848;49.798;10.228;2023-02-01T07:38:56;3.40;;;1.95;;
26756;SDS011;23848;49.798;10.228;2023-02-01T07:41:25;4.18;;;2.30;;
26756;SDS011;23848;49.798;10.228;2023-02-01T07:43:54;4.68;;;2.30;;
26756;SDS011;23848;49.798;10.228;2023-02-01T07:46:22;6.28;;;2.50;;
26756;SDS011;23848;49.798;10.228;2023-02-01T07:48:51;5.30;;;2.72;;
26756;SDS011;23848;49.798;10.228;2023-02-01T07:51:19;8.32;;;3.30;;
26756;SDS011;23848;49.798;10.228;2023-02-01T07:53:47;7.55;;;3.20;;
26756;SDS011;23848;49.798;10.228;2023-02-01T07:56:18;6.55;;;2.78;;
26756;SDS011;23848;49.798;10.228;2023-02-01T07:58:48;5.65;;;2.88;;
26756;SDS011;23848;49.798;10.228;2023-02-01T08:01:18;4.82;;;2.78;;
26756;SDS011;23848;49.798;10.228;2023-02-01T08:03:51;6.35;;;2.90;;
26756;SDS011;23848;49.798;10.228;2023-02-01T08:06:20;6.28;;;2.78;;
26756;SDS011;23848;49.798;10.228;2023-02-01T08:08:51;5.72;;;2.65;;
26756;SDS011;23848;49.798;10.228;2023-02-01T08:11:21;7.38;;;3.10;;
26756;SDS011;23848;49.798;10.228;2023-02-01T08:13:50;4.55;;;3.00;;
26756;SDS011;23848;49.798;10.228;2023-02-01T08:16:19;8.73;;;2.92;;
26756;SDS011;23848;49.798;10.228;2023-02-01T08:18:47;6.80;;;3.00;;
26756;SDS011;23848;49.798;10.228;2023-02-01T08:21:16;8.85;;;3.40;;
26756;SDS011;23848;49.798;10.228;2023-02-01T08:23:45;9.35;;;3.33;;
26756;SDS011;23848;49.798;10.228;2023-02-01T08:26:14;9.73;;;3.53;;
26756;SDS011;23848;49.798;10.228;2023-02-01T08:28:46;10.80;;;2.97;;
26756;SDS011;23848;49.798;10.228;2023-02-01T08:31:15;10.10;;;3.05;;
26756;SDS011;23848;49.798;10.228;2023-02-01T08:33:47;7.57;;;3.30;;
26756;SDS011;23848;49.798;10.228;2023-02-01T08:36:15;7.07;;;3.35;;
26756;SDS011;23848;49.798;10.228;2023-02-01T08:38:44;6.47;;;2.97;;
26756;SDS011;23848;49.798;10.228;2023-02-01T08:41:13;7.60;;;3.03;;
26756;SDS011;23848;49.798;10.228;2023-02-01T08:43:41;6.55;;;2.97;;
26756;SDS011;23848;49.798;10.228;2023-02-01T08:46:11;6.65;;;2.78;;
26756;SDS011;23848;49.798;10.228;2023-02-01T08:48:40;5.53;;;2.60;;
26756;SDS011;23848;49.798;10.228;2023-02-01T08:51:09;4.43;;;2.42;;
26756;SDS011;23848;49.798;10.228;2023-02-01T08:53:37;6.57;;;3.20;;
26756;SDS011;23848;49.798;10.228;2023-02-01T08:56:07;6.20;;;3.20;;
26756;SDS011;23848;49.798;10.228;2023-02-01T08:58:36;7.78;;;3.88;;
26756;SDS011;23848;49.798;10.228;2023-02-01T09:01:05;7.63;;;3.47;;
26756;SDS011;23848;49.798;10.228;2023-02-01T09:03:35;7.13;;;2.90;;
26756;SDS011;23848;49.798;10.228;2023-02-01T09:06:04;7.68;;;3.42;;
26756;SDS011;23848;49.798;10.228;2023-02-01T09:08:32;6.72;;;3.00;;
26756;SDS011;23848;49.798;10.228;2023-02-01T09:11:01;6.72;;;2.58;;
26756;SDS011;23848;49.798;10.228;2023-02-01T09:13:30;6.60;;;2.78;;
26756;SDS011;23848;49.798;10.228;2023-02-01T09:15:59;5.90;;;2.78;;
26756;SDS011;23848;49.798;10.228;2023-02-01T09:18:28;7.85;;;2.70;;
26756;SDS011;23848;49.798;10.228;2023-02-01T09:20:57;5.65;;;2.45;;
26756;SDS011;23848;49.798;10.228;2023-02-01T09:23:26;8.23;;;2.60;;
26756;SDS011;23848;49.798;10.228;2023-02-01T09:25:54;6.68;;;2.97;;
26756;SDS011;23848;49.798;10.228;2023-02-01T09:28:26;8.30;;;2.47;;
26756;SDS011;23848;49.798;10.228;2023-02-01T09:30:55;9.05;;;2.80;;
26756;SDS011;23848;49.798;10.228;2023-02-01T09:33:24;9.30;;;2.60;;
26756;SDS011;23848;49.798;10.228;2023-02-01T09:35:55;6.30;;;2.38;;
26756;SDS011;23848;49.798;10.228;2023-02-01T09:38:25;7.88;;;2.60;;
26756;SDS011;23848;49.798;10.228;2023-02-01T09:40:54;9.38;;;2.50;;
26756;SDS011;23848;49.798;10.228;2023-02-01T09:43:26;6.75;;;2.65;;
26756;SDS011;23848;49.798;10.228;2023-02-01T09:45:59;3.60;;;2.08;;
26756;SDS011;23848;49.798;10.228;2023-02-01T09:48:32;4.70;;;2.60;;
26756;SDS011;23848;49.798;10.228;2023-02-01T09:51:02;5.70;;;2.40;;
26756;SDS011;23848;49.798;10.228;2023-02-01T09:53:34;8.18;;;2.35;;
26756;SDS011;23848;49.798;10.228;2023-02-01T09:56:04;6.03;;;2.53;;
26756;SDS011;23848;49.798;10.228;2023-02-01T09:58:33;6.03;;;2.50;;
26756;SDS011;23848;49.798;10.228;2023-02-01T10:01:03;5.50;;;2.10;;
26756;SDS011;23848;49.798;10.228;2023-02-01T10:03:34;7.88;;;2.42;;
26756;SDS011;23848;49.798;10.228;2023-02-01T10:06:16;10.55;;;2.75;;
26756;SDS011;23848;49.798;10.228;2023-02-01T10:08:57;11.57;;;2.70;;
26756;SDS011;23848;49.798;10.228;2023-02-01T10:11:30;5.63;;;2.63;;
26756;SDS011;23848;49.798;10.228;2023-02-01T10:14:17;15.88;;;7.22;;
26756;SDS011;23848;49.798;10.228;2023-02-01T10:16:50;7.53;;;3.67;;
26756;SDS011;23848;49.798;10.228;2023-02-01T10:19:22;8.60;;;3.00;;
26756;SDS011;23848;49.798;10.228;2023-02-01T10:21:54;19.35;;;9.05;;
26756;SDS011;23848;49.798;10.228;2023-02-01T10:27:19;7.85;;;3.95;;
26756;SDS011;23848;49.798;10.228;2023-02-01T10:29:50;18.33;;;10.95;;
26756;SDS011;23848;49.798;10.228;2023-02-01T10:32:20;8.05;;;3.33;;
26756;SDS011;23848;49.798;10.228;2023-02-01T10:34:49;7.25;;;2.50;;
26756;SDS011;23848;49.798;10.228;2023-02-01T10:37:27;8.43;;;3.55;;
26756;SDS011;23848;49.798;10.228;2023-02-01T10:39:57;7.82;;;2.50;;
26756;SDS011;23848;49.798;10.228;2023-02-01T10:42:28;7.25;;;2.40;;
26756;SDS011;23848;49.798;10.228;2023-02-01T10:44:58;7.95;;;2.72;;
26756;SDS011;23848;49.798;10.228;2023-02-01T10:47:27;6.47;;;2.42;;
26756;SDS011;23848;49.798;10.228;2023-02-01T10:49:57;5.95;;;2.40;;
26756;SDS011;23848;49.798;10.228;2023-02-01T10:52:31;5.10;;;2.60;;
26756;SDS011;23848;49.798;10.228;2023-02-01T10:57:55;8.10;;;2.30;;
26756;SDS011;23848;49.798;10.228;2023-02-01T11:00:24;6.03;;;2.20;;
26756;SDS011;23848;49.798;10.228;2023-02-01T11:02:52;5.82;;;2.17;;
26756;SDS011;23848;49.798;10.228;2023-02-01T11:05:22;6.68;;;2.47;;
26756;SDS011;23848;49.798;10.228;2023-02-01T11:07:53;8.15;;;2.75;;
26756;SDS011;23848;49.798;10.228;2023-02-01T11:10:35;5.38;;;2.25;;
26756;SDS011;23848;49.798;10.228;2023-02-01T11:13:05;4.85;;;1.98;;
26756;SDS011;23848;49.798;10.228;2023-02-01T11:15:33;7.38;;;2.47;;
26756;SDS011;23848;49.798;10.228;2023-02-01T11:18:07;9.10;;;2.33;;
26756;SDS011;23848;49.798;10.228;2023-02-01T11:20:42;7.00;;;2.30;;
26756;SDS011;23848;49.798;10.228;2023-02-01T11:23:14;7.43;;;2.63;;
26756;SDS011;23848;49.798;10.228;2023-02-01T11:25:47;6.10;;;2.20;;
26756;SDS011;23848;49.798;10.228;2023-02-01T11:30:45;5.93;;;3.28;;
26756;SDS011;23848;49.798;10.228;2023-02-01T11:33:16;4.70;;;2.45;;
26756;SDS011;23848;49.798;10.228;2023-02-01T11:35:45;7.85;;;3.08;;
26756;SDS011;23848;49.798;10.228;2023-02-01T11:38:20;13.00;;;5.88;;
26756;SDS011;23848;49.798;10.228;2023-02-01T11:40:49;7.45;;;2.97;;
26756;SDS011;23848;49.798;10.228;2023-02-01T11:43:19;9.13;;;2.42;;
26756;SDS011;23848;49.798;10.228;2023-02-01T11:45:56;9.05;;;2.20;;
26756;SDS011;23848;49.798;10.228;2023-02-01T11:48:25;6.20;;;2.60;;
26756;SDS011;23848;49.798;10.228;2023-02-01T11:50:58;4.35;;;2.22;;
26756;SDS011;23848;49.798;10.228;2023-02-01T11:53:37;7.03;;;1.73;;
26756;SDS011;23848;49.798;10.228;2023-02-01T11:56:17;8.57;;;2.63;;
26756;SDS011;23848;49.798;10.228;2023-02-01T11:58:58;6.82;;;2.25;;
26756;SDS011;23848;49.798;10.228;2023-02-01T12:01:35;6.22;;;1.70;;
26756;SDS011;23848;49.798;10.228;2023-02-01T12:04:15;8.60;;;2.40;;
26756;SDS011;23848;49.798;10.228;2023-02-01T12:06:48;6.40;;;1.67;;
26756;SDS011;23848;49.798;10.228;2023-02-01T12:09:23;6.30;;;2.35;;
26756;SDS011;23848;49.798;10.228;2023-02-01T12:11:59;4.50;;;1.67;;
26756;SDS011;23848;49.798;10.228;2023-02-01T12:17:41;4.88;;;1.45;;
26756;SDS011;23848;49.798;10.228;2023-02-01T12:20:17;6.40;;;2.15;;
26756;SDS011;23848;49.798;10.228;2023-02-01T12:22:54;8.45;;;1.90;;
26756;SDS011;23848;49.798;10.228;2023-02-01T12:25:27;5.20;;;1.73;;
26756;SDS011;23848;49.798;10.228;2023-02-01T12:28:06;6.25;;;2.20;;
26756;SDS011;23848;49.798;10.228;2023-02-01T12:30:51;9.82;;;2.60;;
26756;SDS011;23848;49.798;10.228;2023-02-01T12:33:31;3.22;;;1.52;;
26756;SDS011;23848;49.798;10.228;2023-02-01T12:36:07;4.53;;;1.67;;
26756;SDS011;23848;49.798;10.228;2023-02-01T12:38:42;5.82;;;1.75;;
26756;SDS011;23848;49.798;10.228;2023-02-01T12:41:19;7.63;;;1.80;;
26756;SDS011;23848;49.798;10.228;2023-02-01T12:43:52;4.72;;;1.95;;
26756;SDS011;23848;49.798;10.228;2023-02-01T12:46:22;7.55;;;2.40;;
26756;SDS011;23848;49.798;10.228;2023-02-01T12:48:55;5.32;;;2.05;;
26756;SDS011;23848;49.798;10.228;2023-02-01T12:51:25;5.35;;;1.67;;
26756;SDS011;23848;49.798;10.228;2023-02-01T12:54:00;5.13;;;1.55;;
26756;SDS011;23848;49.798;10.228;2023-02-01T12:56:34;7.05;;;2.20;;
26756;SDS011;23848;49.798;10.228;2023-02-01T12:59:05;5.43;;;1.50;;
26756;SDS011;23848;49.798;10.228;2023-02-01T13:01:36;3.95;;;1.70;;
26756;SDS011;23848;49.798;10.228;2023-02-01T13:04:10;7.45;;;1.70;;
26756;SDS011;23848;49.798;10.228;2023-02-01T13:06:41;5.30;;;1.80;;
26756;SDS011;23848;49.798;10.228;2023-02-01T13:09:18;6.63;;;2.13;;
26756;SDS011;23848;49.798;10.228;2023-02-01T13:11:51;4.63;;;1.77;;
26756;SDS011;23848;49.798;10.228;2023-02-01T13:14:25;8.82;;;2.40;;
26756;SDS011;23848;49.798;10.228;2023-02-01T13:16:57;6.35;;;1.88;;
26756;SDS011;23848;49.798;10.228;2023-02-01T13:19:29;4.03;;;1.63;;
26756;SDS011;23848;49.798;10.228;2023-02-01T13:22:01;5.43;;;1.65;;
26756;SDS011;23848;49.798;10.228;2023-02-01T13:24:35;5.40;;;1.90;;
26756;SDS011;23848;49.798;10.228;2023-02-01T13:27:04;4.63;;;1.52;;
26756;SDS011;23848;49.798;10.228;2023-02-01T13:29:33;4.32;;;2.00;;
26756;SDS011;23848;49.798;10.228;2023-02-01T13:32:05;5.70;;;1.55;;
26756;SDS011;23848;49.798;10.228;2023-02-01T13:37:43;5.85;;;2.50;;
26756;SDS011;23848;49.798;10.228;2023-02-01T13:40:18;8.27;;;2.08;;
26756;SDS011;23848;49.798;10.228;2023-02-01T13:42:48;6.13;;;2.70;;
26756;SDS011;23848;49.798;10.228;2023-02-01T13:45:20;7.82;;;2.90;;
26756;SDS011;23848;49.798;10.228;2023-02-01T13:47:54;7.45;;;2.70;;
26756;SDS011;23848;49.798;10.228;2023-02-01T13:50:24;6.55;;;1.77;;
26756;SDS011;23848;49.798;10.228;2023-02-01T13:52:55;5.32;;;1.88;;
26756;SDS011;23848;49.798;10.228;2023-02-01T13:55:30;5.47;;;1.92;;
26756;SDS011;23848;49.798;10.228;2023-02-01T14:00:42;5.65;;;2.40;;
26756;SDS011;23848;49.798;10.228;2023-02-01T14:03:16;6.55;;;1.45;;
26756;SDS011;23848;49.798;10.228;2023-02-01T14:05:58;4.57;;;2.03;;
26756;SDS011;23848;49.798;10.228;2023-02-01T14:08:42;6.22;;;2.10;;
26756;SDS011;23848;49.798;10.228;2023-02-01T14:11:33;8.10;;;2.08;;
26756;SDS011;23848;49.798;10.228;2023-02-01T14:23:26;7.18;;;1.73;;
26756;SDS011;23848;49.798;10.228;2023-02-01T14:28:57;4.38;;;1.77;;
26756;SDS011;23848;49.798;10.228;2023-02-01T14:31:31;4.50;;;1.50;;
26756;SDS011;23848;49.798;10.228;2023-02-01T14:34:05;3.28;;;1.65;;
26756;SDS011;23848;49.798;10.228;2023-02-01T14:36:44;6.00;;;1.67;;
26756;SDS011;23848;49.798;10.228;2023-02-01T14:42:14;6.07;;;1.70;;
26756;SDS011;23848;49.798;10.228;2023-02-01T14:44:45;4.25;;;1.67;;
26756;SDS011;23848;49.798;10.228;2023-02-01T14:47:26;5.88;;;1.83;;
26756;SDS011;23848;49.798;10.228;2023-02-01T14:49:56;7.35;;;2.25;;
26756;SDS011;23848;49.798;10.228;2023-02-01T14:52:29;6.93;;;1.80;;
26756;SDS011;23848;49.798;10.228;2023-02-01T14:55:00;7.25;;;2.15;;
26756;SDS011;23848;49.798;10.228;2023-02-01T14:57:29;3.88;;;1.27;;
26756;SDS011;23848;49.798;10.228;2023-02-01T15:00:05;5.82;;;1.83;;
26756;SDS011;23848;49.798;10.228;2023-02-01T15:02:40;4.50;;;1.52;;
26756;SDS011;23848;49.798;10.228;2023-02-01T15:05:19;5.38;;;1.65;;
26756;SDS011;23848;49.798;10.228;2023-02-01T15:08:03;6.47;;;1.77;;
26756;SDS011;23848;49.798;10.228;2023-02-01T15:10:33;5.43;;;1.90;;
26756;SDS011;23848;49.798;10.228;2023-02-01T15:13:02;9.13;;;2.00;;
26756;SDS011;23848;49.798;10.228;2023-02-01T15:15:36;5.40;;;2.10;;
26756;SDS011;23848;49.798;10.228;2023-02-01T15:18:14;6.03;;;1.90;;
26756;SDS011;23848;49.798;10.228;2023-02-01T15:20:50;6.28;;;1.98;;
26756;SDS011;23848;49.798;10.228;2023-02-01T15:26:29;4.00;;;1.83;;
26756;SDS011;23848;49.798;10.228;2023-02-01T15:28:58;8.50;;;2.30;;
26756;SDS011;23848;49.798;10.228;2023-02-01T15:31:36;9.30;;;2.03;;
26756;SDS011;23848;49.798;10.228;2023-02-01T15:34:19;5.70;;;1.60;;
26756;SDS011;23848;49.798;10.228;2023-02-01T15:37:05;8.02;;;1.95;;